sensor_id;sensor_type;location;lat;lon;timestamp;temperature;humidity
5280;DHT22;2663;53.588;10.010;2022-08-19T00:01:47;21.00;99.90
5280;DHT22;2663;53.588;10.010;2022-08-19T00:04:21;21.00;99.90
5280;DHT22;2663;53.588;10.010;2022-08-19T00:06:49;20.90;99.90
5280;DHT22;2663;53.588;10.010;2022-08-19T00:09:17;21.00;99.90
5280;DHT22;2663;53.588;10.010;2022-08-19T00:11:45;20.90;99.90
5280;DHT22;2663;53.588;10.010;2022-08-19T00:14:14;21.00;99.90
5280;DHT22;2663;53.588;10.010;2022-08-19T00:16:43;21.00;99.90
5280;DHT22;2663;53.588;10.010;2022-08-19T00:19:10;20.90;99.90
5280;DHT22;2663;53.588;10.010;2022-08-19T00:21:37;20.90;99.90
5280;DHT22;2663;53.588;10.010;2022-08-19T00:24:08;21.00;99.90
5280;DHT22;2663;53.588;10.010;2022-08-19T00:26:37;20.90;99.90
5280;DHT22;2663;53.588;10.010;2022-08-19T00:29:05;20.00;99.90
5280;DHT22;2663;53.588;10.010;2022-08-19T00:31:32;20.70;99.90
5280;DHT22;2663;53.588;10.010;2022-08-19T00:33:59;20.70;99.90
5280;DHT22;2663;53.588;10.010;2022-08-19T00:36:26;20.60;99.90
5280;DHT22;2663;53.588;10.010;2022-08-19T00:38:52;20.70;99.90
5280;DHT22;2663;53.588;10.010;2022-08-19T00:41:21;20.70;99.90
5280;DHT22;2663;53.588;10.010;2022-08-19T00:44:00;20.60;99.90
5280;DHT22;2663;53.588;10.010;2022-08-19T00:46:28;20.60;99.90
5280;DHT22;2663;53.588;10.010;2022-08-19T00:48:56;20.60;99.90
5280;DHT22;2663;53.588;10.010;2022-08-19T00:51:26;20.60;99.90
5280;DHT22;2663;53.588;10.010;2022-08-19T00:53:55;20.70;99.90
5280;DHT22;2663;53.588;10.010;2022-08-19T00:56:24;20.60;99.90
5280;DHT22;2663;53.588;10.010;2022-08-19T00:58:55;20.60;99.90
5280;DHT22;2663;53.588;10.010;2022-08-19T01:01:23;20.60;99.90
5280;DHT22;2663;53.588;10.010;2022-08-19T01:03:50;20.60;99.90
5280;DHT22;2663;53.588;10.010;2022-08-19T01:06:24;20.50;99.90
5280;DHT22;2663;53.588;10.010;2022-08-19T01:08:51;20.50;99.90
5280;DHT22;2663;53.588;10.010;2022-08-19T01:11:17;20.50;99.90
5280;DHT22;2663;53.588;10.010;2022-08-19T01:13:45;20.50;99.90
5280;DHT22;2663;53.588;10.010;2022-08-19T01:16:16;20.40;99.90
5280;DHT22;2663;53.588;10.010;2022-08-19T01:18:44;20.40;99.90
5280;DHT22;2663;53.588;10.010;2022-08-19T01:23:48;20.30;99.90
5280;DHT22;2663;53.588;10.010;2022-08-19T01:26:19;20.30;99.90
5280;DHT22;2663;53.588;10.010;2022-08-19T01:28:48;20.40;99.90
5280;DHT22;2663;53.588;10.010;2022-08-19T01:31:23;20.50;99.90
5280;DHT22;2663;53.588;10.010;2022-08-19T01:33:56;20.50;99.90
5280;DHT22;2663;53.588;10.010;2022-08-19T01:36:27;20.50;99.90
5280;DHT22;2663;53.588;10.010;2022-08-19T01:38:55;20.50;99.90
5280;DHT22;2663;53.588;10.010;2022-08-19T01:41:22;20.40;99.90
5280;DHT22;2663;53.588;10.010;2022-08-19T01:43:53;20.40;99.90
5280;DHT22;2663;53.588;10.010;2022-08-19T01:46:41;20.10;99.90
5280;DHT22;2663;53.588;10.010;2022-08-19T01:49:08;20.00;99.90
5280;DHT22;2663;53.588;10.010;2022-08-19T01:51:36;20.00;99.90
5280;DHT22;2663;53.588;10.010;2022-08-19T01:54:07;20.00;99.90
5280;DHT22;2663;53.588;10.010;2022-08-19T01:56:34;20.00;99.90
5280;DHT22;2663;53.588;10.010;2022-08-19T01:59:05;20.10;99.90
5280;DHT22;2663;53.588;10.010;2022-08-19T02:01:34;20.20;99.90
5280;DHT22;2663;53.588;10.010;2022-08-19T02:04:02;20.20;99.90
5280;DHT22;2663;53.588;10.010;2022-08-19T02:06:29;20.30;99.90
5280;DHT22;2663;53.588;10.010;2022-08-19T02:08:56;20.30;99.90
5280;DHT22;2663;53.588;10.010;2022-08-19T02:11:29;20.20;99.90
5280;DHT22;2663;53.588;10.010;2022-08-19T02:14:00;20.00;99.90
5280;DHT22;2663;53.588;10.010;2022-08-19T02:16:28;20.00;99.90
5280;DHT22;2663;53.588;10.010;2022-08-19T02:18:55;19.90;99.90
5280;DHT22;2663;53.588;10.010;2022-08-19T02:21:23;19.90;99.90
5280;DHT22;2663;53.588;10.010;2022-08-19T02:23:50;19.90;99.90
5280;DHT22;2663;53.588;10.010;2022-08-19T02:26:17;19.90;99.90
5280;DHT22;2663;53.588;10.010;2022-08-19T02:28:45;19.80;99.90
5280;DHT22;2663;53.588;10.010;2022-08-19T02:31:15;19.80;99.90
5280;DHT22;2663;53.588;10.010;2022-08-19T02:33:44;19.90;99.90
5280;DHT22;2663;53.588;10.010;2022-08-19T02:36:12;20.00;99.90
5280;DHT22;2663;53.588;10.010;2022-08-19T02:38:41;19.90;99.90
5280;DHT22;2663;53.588;10.010;2022-08-19T02:41:23;20.00;99.90
5280;DHT22;2663;53.588;10.010;2022-08-19T02:43:53;19.90;99.90
5280;DHT22;2663;53.588;10.010;2022-08-19T02:46:40;20.00;99.90
5280;DHT22;2663;53.588;10.010;2022-08-19T02:49:07;20.00;99.90
5280;DHT22;2663;53.588;10.010;2022-08-19T02:51:37;20.00;99.90
5280;DHT22;2663;53.588;10.010;2022-08-19T02:54:06;19.90;99.90
5280;DHT22;2663;53.588;10.010;2022-08-19T02:56:38;19.90;99.90
5280;DHT22;2663;53.588;10.010;2022-08-19T02:59:06;19.90;99.90
5280;DHT22;2663;53.588;10.010;2022-08-19T03:01:38;19.90;99.90
5280;DHT22;2663;53.588;10.010;2022-08-19T03:04:08;20.00;99.90
5280;DHT22;2663;53.588;10.010;2022-08-19T03:06:40;20.00;99.90
5280;DHT22;2663;53.588;10.010;2022-08-19T03:09:07;20.00;99.90
5280;DHT22;2663;53.588;10.010;2022-08-19T03:11:34;20.10;99.90
5280;DHT22;2663;53.588;10.010;2022-08-19T03:14:02;20.10;99.90
5280;DHT22;2663;53.588;10.010;2022-08-19T03:16:31;20.20;99.90
5280;DHT22;2663;53.588;10.010;2022-08-19T03:19:00;19.40;99.90
5280;DHT22;2663;53.588;10.010;2022-08-19T03:21:29;20.10;99.90
5280;DHT22;2663;53.588;10.010;2022-08-19T03:23:59;20.10;99.90
5280;DHT22;2663;53.588;10.010;2022-08-19T03:26:27;20.00;99.90
5280;DHT22;2663;53.588;10.010;2022-08-19T03:28:54;20.00;99.90
5280;DHT22;2663;53.588;10.010;2022-08-19T03:31:26;19.90;99.90
5280;DHT22;2663;53.588;10.010;2022-08-19T03:34:13;19.80;99.90
5280;DHT22;2663;53.588;10.010;2022-08-19T03:36:40;19.60;99.90
5280;DHT22;2663;53.588;10.010;2022-08-19T03:39:07;19.60;99.90
5280;DHT22;2663;53.588;10.010;2022-08-19T03:41:38;19.50;99.90
5280;DHT22;2663;53.588;10.010;2022-08-19T03:44:13;19.50;99.90
5280;DHT22;2663;53.588;10.010;2022-08-19T03:46:44;19.50;99.90
5280;DHT22;2663;53.588;10.010;2022-08-19T03:49:10;19.50;99.90
5280;DHT22;2663;53.588;10.010;2022-08-19T03:51:41;19.50;99.90
5280;DHT22;2663;53.588;10.010;2022-08-19T03:54:12;19.50;99.90
5280;DHT22;2663;53.588;10.010;2022-08-19T03:56:40;19.50;99.90
5280;DHT22;2663;53.588;10.010;2022-08-19T03:59:13;19.50;99.90
5280;DHT22;2663;53.588;10.010;2022-08-19T04:01:39;19.60;99.90
5280;DHT22;2663;53.588;10.010;2022-08-19T04:04:07;19.50;99.90
5280;DHT22;2663;53.588;10.010;2022-08-19T04:06:36;19.50;99.90
5280;DHT22;2663;53.588;10.010;2022-08-19T04:09:07;19.60;99.90
5280;DHT22;2663;53.588;10.010;2022-08-19T04:11:37;19.70;99.90
5280;DHT22;2663;53.588;10.010;2022-08-19T04:14:15;19.70;99.90
5280;DHT22;2663;53.588;10.010;2022-08-19T04:16:44;19.80;99.90
5280;DHT22;2663;53.588;10.010;2022-08-19T04:19:12;19.90;99.90
5280;DHT22;2663;53.588;10.010;2022-08-19T04:21:39;19.90;99.90
5280;DHT22;2663;53.588;10.010;2022-08-19T04:24:06;19.90;99.90
5280;DHT22;2663;53.588;10.010;2022-08-19T04:26:35;19.90;99.90
5280;DHT22;2663;53.588;10.010;2022-08-19T04:29:12;20.00;99.90
5280;DHT22;2663;53.588;10.010;2022-08-19T04:31:39;20.10;99.90
5280;DHT22;2663;53.588;10.010;2022-08-19T04:34:08;20.10;99.90
5280;DHT22;2663;53.588;10.010;2022-08-19T04:36:39;20.00;99.90
5280;DHT22;2663;53.588;10.010;2022-08-19T04:39:10;20.00;99.90
5280;DHT22;2663;53.588;10.010;2022-08-19T04:41:38;19.90;99.90
5280;DHT22;2663;53.588;10.010;2022-08-19T04:44:23;19.80;99.90
5280;DHT22;2663;53.588;10.010;2022-08-19T04:46:51;19.90;99.90
5280;DHT22;2663;53.588;10.010;2022-08-19T04:49:20;19.90;99.90
5280;DHT22;2663;53.588;10.010;2022-08-19T04:51:49;19.90;99.90
5280;DHT22;2663;53.588;10.010;2022-08-19T04:54:18;19.90;99.90
5280;DHT22;2663;53.588;10.010;2022-08-19T04:57:06;19.80;99.90
5280;DHT22;2663;53.588;10.010;2022-08-19T04:59:33;19.80;99.90
5280;DHT22;2663;53.588;10.010;2022-08-19T05:02:00;19.80;99.90
5280;DHT22;2663;53.588;10.010;2022-08-19T05:04:27;19.80;99.90
5280;DHT22;2663;53.588;10.010;2022-08-19T05:06:57;19.80;99.90
5280;DHT22;2663;53.588;10.010;2022-08-19T05:09:27;19.90;99.90
5280;DHT22;2663;53.588;10.010;2022-08-19T05:12:14;19.90;99.90
5280;DHT22;2663;53.588;10.010;2022-08-19T05:14:41;19.90;99.90
5280;DHT22;2663;53.588;10.010;2022-08-19T05:17:07;19.90;99.90
5280;DHT22;2663;53.588;10.010;2022-08-19T05:19:52;20.80;99.90
5280;DHT22;2663;53.588;10.010;2022-08-19T05:22:38;19.80;99.90
5280;DHT22;2663;53.588;10.010;2022-08-19T05:25:09;19.80;99.90
5280;DHT22;2663;53.588;10.010;2022-08-19T05:27:40;19.80;99.90
5280;DHT22;2663;53.588;10.010;2022-08-19T05:30:07;19.70;99.90
5280;DHT22;2663;53.588;10.010;2022-08-19T05:32:34;19.70;99.90
5280;DHT22;2663;53.588;10.010;2022-08-19T05:35:01;19.70;99.90
5280;DHT22;2663;53.588;10.010;2022-08-19T05:37:27;19.80;99.90
5280;DHT22;2663;53.588;10.010;2022-08-19T05:39:55;19.80;99.90
5280;DHT22;2663;53.588;10.010;2022-08-19T05:42:22;19.80;99.90
5280;DHT22;2663;53.588;10.010;2022-08-19T05:44:50;19.80;99.90
5280;DHT22;2663;53.588;10.010;2022-08-19T05:47:17;19.80;99.90
5280;DHT22;2663;53.588;10.010;2022-08-19T05:49:46;19.80;99.90
5280;DHT22;2663;53.588;10.010;2022-08-19T05:52:15;19.80;99.90
5280;DHT22;2663;53.588;10.010;2022-08-19T05:54:51;19.80;99.90
5280;DHT22;2663;53.588;10.010;2022-08-19T05:57:18;19.70;99.90
5280;DHT22;2663;53.588;10.010;2022-08-19T05:59:45;19.70;99.90
5280;DHT22;2663;53.588;10.010;2022-08-19T06:02:14;19.70;99.90
5280;DHT22;2663;53.588;10.010;2022-08-19T06:04:41;19.70;99.90
5280;DHT22;2663;53.588;10.010;2022-08-19T06:07:09;19.80;99.90
5280;DHT22;2663;53.588;10.010;2022-08-19T06:09:39;19.70;99.90
5280;DHT22;2663;53.588;10.010;2022-08-19T06:12:06;19.80;99.90
5280;DHT22;2663;53.588;10.010;2022-08-19T06:14:35;19.80;99.90
5280;DHT22;2663;53.588;10.010;2022-08-19T06:17:07;19.80;99.90
5280;DHT22;2663;53.588;10.010;2022-08-19T06:19:34;19.90;99.90
5280;DHT22;2663;53.588;10.010;2022-08-19T06:22:07;20.00;99.90
5280;DHT22;2663;53.588;10.010;2022-08-19T06:24:34;20.10;99.90
5280;DHT22;2663;53.588;10.010;2022-08-19T06:27:02;20.20;99.90
5280;DHT22;2663;53.588;10.010;2022-08-19T06:29:29;20.10;99.90
5280;DHT22;2663;53.588;10.010;2022-08-19T06:31:58;20.10;99.90
5280;DHT22;2663;53.588;10.010;2022-08-19T06:34:27;20.20;99.90
5280;DHT22;2663;53.588;10.010;2022-08-19T06:36:56;20.20;99.90
5280;DHT22;2663;53.588;10.010;2022-08-19T06:39:26;20.30;99.90
5280;DHT22;2663;53.588;10.010;2022-08-19T06:41:55;20.20;99.90
5280;DHT22;2663;53.588;10.010;2022-08-19T06:44:26;20.20;99.90
5280;DHT22;2663;53.588;10.010;2022-08-19T06:46:56;21.60;99.90
5280;DHT22;2663;53.588;10.010;2022-08-19T06:49:23;20.40;99.90
5280;DHT22;2663;53.588;10.010;2022-08-19T06:51:50;20.40;99.90
5280;DHT22;2663;53.588;10.010;2022-08-19T06:54:18;20.30;99.90
5280;DHT22;2663;53.588;10.010;2022-08-19T06:56:46;20.30;99.90
5280;DHT22;2663;53.588;10.010;2022-08-19T06:59:19;20.30;99.90
5280;DHT22;2663;53.588;10.010;2022-08-19T07:01:52;20.20;99.90
5280;DHT22;2663;53.588;10.010;2022-08-19T07:04:22;20.10;99.90
5280;DHT22;2663;53.588;10.010;2022-08-19T07:06:55;20.10;99.90
5280;DHT22;2663;53.588;10.010;2022-08-19T07:09:25;20.10;99.90
5280;DHT22;2663;53.588;10.010;2022-08-19T07:11:54;20.20;99.90
5280;DHT22;2663;53.588;10.010;2022-08-19T07:14:25;20.20;99.90
5280;DHT22;2663;53.588;10.010;2022-08-19T07:16:55;20.20;99.90
5280;DHT22;2663;53.588;10.010;2022-08-19T07:19:24;20.30;99.90
5280;DHT22;2663;53.588;10.010;2022-08-19T07:21:54;20.30;99.90
5280;DHT22;2663;53.588;10.010;2022-08-19T07:24:24;20.30;99.90
5280;DHT22;2663;53.588;10.010;2022-08-19T07:26:57;20.40;99.90
5280;DHT22;2663;53.588;10.010;2022-08-19T07:29:29;20.30;99.90
5280;DHT22;2663;53.588;10.010;2022-08-19T07:31:57;20.40;99.90
5280;DHT22;2663;53.588;10.010;2022-08-19T07:34:28;20.50;99.90
5280;DHT22;2663;53.588;10.010;2022-08-19T07:36:55;20.40;99.90
5280;DHT22;2663;53.588;10.010;2022-08-19T07:39:26;20.40;99.90
5280;DHT22;2663;53.588;10.010;2022-08-19T07:41:54;20.20;99.90
5280;DHT22;2663;53.588;10.010;2022-08-19T07:44:21;20.10;99.90
5280;DHT22;2663;53.588;10.010;2022-08-19T07:46:52;20.10;99.90
5280;DHT22;2663;53.588;10.010;2022-08-19T07:49:20;20.10;99.90
5280;DHT22;2663;53.588;10.010;2022-08-19T07:51:49;20.10;99.90
5280;DHT22;2663;53.588;10.010;2022-08-19T07:54:16;20.20;99.90
5280;DHT22;2663;53.588;10.010;2022-08-19T07:56:43;20.20;99.90
5280;DHT22;2663;53.588;10.010;2022-08-19T07:59:10;20.20;99.90
5280;DHT22;2663;53.588;10.010;2022-08-19T08:01:39;20.10;99.90
5280;DHT22;2663;53.588;10.010;2022-08-19T08:04:07;20.10;99.90
5280;DHT22;2663;53.588;10.010;2022-08-19T08:06:53;20.00;99.90
5280;DHT22;2663;53.588;10.010;2022-08-19T08:09:40;20.00;99.90
5280;DHT22;2663;53.588;10.010;2022-08-19T08:12:17;19.90;99.90
5280;DHT22;2663;53.588;10.010;2022-08-19T08:15:04;19.80;99.90
5280;DHT22;2663;53.588;10.010;2022-08-19T08:17:34;19.80;99.90
5280;DHT22;2663;53.588;10.010;2022-08-19T08:20:18;19.90;99.90
5280;DHT22;2663;53.588;10.010;2022-08-19T08:22:45;19.90;99.90
5280;DHT22;2663;53.588;10.010;2022-08-19T08:25:32;20.00;99.90
5280;DHT22;2663;53.588;10.010;2022-08-19T08:27:59;20.00;99.90
5280;DHT22;2663;53.588;10.010;2022-08-19T08:30:28;20.00;99.90
5280;DHT22;2663;53.588;10.010;2022-08-19T08:32:59;19.90;99.90
5280;DHT22;2663;53.588;10.010;2022-08-19T08:35:28;19.90;99.90
5280;DHT22;2663;53.588;10.010;2022-08-19T08:37:55;19.90;99.90
5280;DHT22;2663;53.588;10.010;2022-08-19T08:40:48;20.00;99.90
5280;DHT22;2663;53.588;10.010;2022-08-19T08:43:28;20.00;99.90
5280;DHT22;2663;53.588;10.010;2022-08-19T08:46:17;19.90;99.90
5280;DHT22;2663;53.588;10.010;2022-08-19T08:49:20;19.90;99.90
5280;DHT22;2663;53.588;10.010;2022-08-19T08:52:07;20.00;99.90
5280;DHT22;2663;53.588;10.010;2022-08-19T08:54:48;20.10;99.90
5280;DHT22;2663;53.588;10.010;2022-08-19T08:57:28;20.00;99.90
5280;DHT22;2663;53.588;10.010;2022-08-19T09:00:11;20.10;99.90
5280;DHT22;2663;53.588;10.010;2022-08-19T09:02:42;20.10;99.90
5280;DHT22;2663;53.588;10.010;2022-08-19T09:05:09;20.20;99.90
5280;DHT22;2663;53.588;10.010;2022-08-19T09:08:13;20.20;99.90
5280;DHT22;2663;53.588;10.010;2022-08-19T09:10:49;20.20;99.90
5280;DHT22;2663;53.588;10.010;2022-08-19T09:13:36;20.30;99.90
5280;DHT22;2663;53.588;10.010;2022-08-19T09:16:07;20.20;99.90
5280;DHT22;2663;53.588;10.010;2022-08-19T09:18:48;20.20;99.90
5280;DHT22;2663;53.588;10.010;2022-08-19T09:21:15;20.20;99.90
5280;DHT22;2663;53.588;10.010;2022-08-19T09:23:43;20.20;99.90
5280;DHT22;2663;53.588;10.010;2022-08-19T09:26:21;20.20;99.90
5280;DHT22;2663;53.588;10.010;2022-08-19T09:28:50;20.30;99.90
5280;DHT22;2663;53.588;10.010;2022-08-19T09:31:22;20.40;99.90
5280;DHT22;2663;53.588;10.010;2022-08-19T09:33:51;20.60;99.90
5280;DHT22;2663;53.588;10.010;2022-08-19T09:36:20;20.10;99.90
5280;DHT22;2663;53.588;10.010;2022-08-19T09:39:00;20.30;99.90
5280;DHT22;2663;53.588;10.010;2022-08-19T09:41:27;20.20;99.90
5280;DHT22;2663;53.588;10.010;2022-08-19T09:43:56;20.30;99.90
5280;DHT22;2663;53.588;10.010;2022-08-19T09:46:27;20.30;99.90
5280;DHT22;2663;53.588;10.010;2022-08-19T09:48:57;20.40;99.90
5280;DHT22;2663;53.588;10.010;2022-08-19T09:51:31;20.50;99.90
5280;DHT22;2663;53.588;10.010;2022-08-19T09:54:02;20.40;99.90
5280;DHT22;2663;53.588;10.010;2022-08-19T09:56:31;20.30;99.90
5280;DHT22;2663;53.588;10.010;2022-08-19T09:59:01;20.10;99.90
5280;DHT22;2663;53.588;10.010;2022-08-19T10:01:30;20.10;99.90
5280;DHT22;2663;53.588;10.010;2022-08-19T10:03:58;20.10;99.90
5280;DHT22;2663;53.588;10.010;2022-08-19T10:06:28;20.10;99.90
5280;DHT22;2663;53.588;10.010;2022-08-19T10:09:12;20.10;99.90
5280;DHT22;2663;53.588;10.010;2022-08-19T10:11:44;20.10;99.90
5280;DHT22;2663;53.588;10.010;2022-08-19T10:14:20;20.10;99.90
5280;DHT22;2663;53.588;10.010;2022-08-19T10:16:49;20.30;99.90
5280;DHT22;2663;53.588;10.010;2022-08-19T10:19:18;20.40;99.90
5280;DHT22;2663;53.588;10.010;2022-08-19T10:21:52;20.40;99.90
5280;DHT22;2663;53.588;10.010;2022-08-19T10:24:19;20.30;99.90
5280;DHT22;2663;53.588;10.010;2022-08-19T10:26:47;20.50;99.90
5280;DHT22;2663;53.588;10.010;2022-08-19T10:29:24;20.70;99.90
5280;DHT22;2663;53.588;10.010;2022-08-19T10:31:59;20.80;99.90
5280;DHT22;2663;53.588;10.010;2022-08-19T10:34:29;20.80;99.90
5280;DHT22;2663;53.588;10.010;2022-08-19T10:36:57;20.90;99.90
5280;DHT22;2663;53.588;10.010;2022-08-19T10:39:31;21.00;99.90
5280;DHT22;2663;53.588;10.010;2022-08-19T10:42:09;21.00;99.90
5280;DHT22;2663;53.588;10.010;2022-08-19T10:44:40;21.00;99.90
5280;DHT22;2663;53.588;10.010;2022-08-19T10:47:06;21.00;99.90
5280;DHT22;2663;53.588;10.010;2022-08-19T10:49:50;21.10;99.90
5280;DHT22;2663;53.588;10.010;2022-08-19T10:52:38;21.10;99.90
5280;DHT22;2663;53.588;10.010;2022-08-19T10:55:21;21.00;99.90
5280;DHT22;2663;53.588;10.010;2022-08-19T10:58:18;20.90;99.90
5280;DHT22;2663;53.588;10.010;2022-08-19T11:00:55;21.00;99.90
5280;DHT22;2663;53.588;10.010;2022-08-19T11:03:22;20.90;99.90
5280;DHT22;2663;53.588;10.010;2022-08-19T11:06:04;20.80;99.90
5280;DHT22;2663;53.588;10.010;2022-08-19T11:08:32;20.90;99.90
5280;DHT22;2663;53.588;10.010;2022-08-19T11:11:01;20.90;99.90
5280;DHT22;2663;53.588;10.010;2022-08-19T11:13:36;20.80;99.90
5280;DHT22;2663;53.588;10.010;2022-08-19T11:16:06;20.70;99.90
5280;DHT22;2663;53.588;10.010;2022-08-19T11:18:45;20.70;99.90
5280;DHT22;2663;53.588;10.010;2022-08-19T11:21:19;20.80;99.90
5280;DHT22;2663;53.588;10.010;2022-08-19T11:23:48;21.00;99.90
5280;DHT22;2663;53.588;10.010;2022-08-19T11:26:16;21.10;99.90
5280;DHT22;2663;53.588;10.010;2022-08-19T11:28:43;21.20;99.90
5280;DHT22;2663;53.588;10.010;2022-08-19T11:31:15;21.40;99.90
5280;DHT22;2663;53.588;10.010;2022-08-19T11:33:42;21.80;99.90
5280;DHT22;2663;53.588;10.010;2022-08-19T11:36:13;22.10;99.90
5280;DHT22;2663;53.588;10.010;2022-08-19T11:38:42;22.20;99.90
5280;DHT22;2663;53.588;10.010;2022-08-19T11:41:09;22.60;99.90
5280;DHT22;2663;53.588;10.010;2022-08-19T11:43:36;22.70;99.90
5280;DHT22;2663;53.588;10.010;2022-08-19T11:46:08;22.50;99.90
5280;DHT22;2663;53.588;10.010;2022-08-19T11:48:37;22.20;99.90
5280;DHT22;2663;53.588;10.010;2022-08-19T11:51:09;22.00;99.90
5280;DHT22;2663;53.588;10.010;2022-08-19T11:53:37;21.90;99.90
5280;DHT22;2663;53.588;10.010;2022-08-19T11:56:05;22.00;99.90
5280;DHT22;2663;53.588;10.010;2022-08-19T11:58:32;22.10;99.90
5280;DHT22;2663;53.588;10.010;2022-08-19T12:01:00;22.00;99.90
5280;DHT22;2663;53.588;10.010;2022-08-19T12:03:27;21.90;99.90
5280;DHT22;2663;53.588;10.010;2022-08-19T12:05:54;21.80;99.90
5280;DHT22;2663;53.588;10.010;2022-08-19T12:08:21;21.80;99.90
5280;DHT22;2663;53.588;10.010;2022-08-19T12:10:48;21.70;99.90
5280;DHT22;2663;53.588;10.010;2022-08-19T12:13:15;21.70;99.90
5280;DHT22;2663;53.588;10.010;2022-08-19T12:15:46;21.70;99.90
5280;DHT22;2663;53.588;10.010;2022-08-19T12:18:14;21.80;99.90
5280;DHT22;2663;53.588;10.010;2022-08-19T12:20:41;21.90;99.90
5280;DHT22;2663;53.588;10.010;2022-08-19T12:23:09;21.90;99.90
5280;DHT22;2663;53.588;10.010;2022-08-19T12:25:38;21.80;99.90
5280;DHT22;2663;53.588;10.010;2022-08-19T12:28:10;21.80;99.90
5280;DHT22;2663;53.588;10.010;2022-08-19T12:30:38;21.90;99.90
5280;DHT22;2663;53.588;10.010;2022-08-19T12:33:04;22.10;99.90
5280;DHT22;2663;53.588;10.010;2022-08-19T12:35:31;22.20;99.90
5280;DHT22;2663;53.588;10.010;2022-08-19T12:37:58;22.20;99.90
5280;DHT22;2663;53.588;10.010;2022-08-19T12:40:26;22.20;99.90
5280;DHT22;2663;53.588;10.010;2022-08-19T12:42:54;22.30;99.90
5280;DHT22;2663;53.588;10.010;2022-08-19T12:45:20;22.50;99.90
5280;DHT22;2663;53.588;10.010;2022-08-19T12:47:48;22.70;99.90
5280;DHT22;2663;53.588;10.010;2022-08-19T12:50:20;23.00;99.90
5280;DHT22;2663;53.588;10.010;2022-08-19T12:52:48;23.30;99.50
5280;DHT22;2663;53.588;10.010;2022-08-19T12:55:14;23.50;98.70
5280;DHT22;2663;53.588;10.010;2022-08-19T12:57:41;23.60;98.70
5280;DHT22;2663;53.588;10.010;2022-08-19T13:00:19;23.70;98.40
5280;DHT22;2663;53.588;10.010;2022-08-19T13:02:50;23.70;97.90
5280;DHT22;2663;53.588;10.010;2022-08-19T13:05:20;23.40;98.10
5280;DHT22;2663;53.588;10.010;2022-08-19T13:07:50;23.30;98.60
5280;DHT22;2663;53.588;10.010;2022-08-19T13:10:19;23.30;98.50
5280;DHT22;2663;53.588;10.010;2022-08-19T13:12:48;23.40;98.30
5280;DHT22;2663;53.588;10.010;2022-08-19T13:15:16;23.40;98.60
5280;DHT22;2663;53.588;10.010;2022-08-19T13:17:51;23.50;98.50
5280;DHT22;2663;53.588;10.010;2022-08-19T13:20:20;23.40;98.20
5280;DHT22;2663;53.588;10.010;2022-08-19T13:22:48;23.30;98.50
5280;DHT22;2663;53.588;10.010;2022-08-19T13:25:16;23.60;98.70
5280;DHT22;2663;53.588;10.010;2022-08-19T13:27:49;23.50;98.80
5280;DHT22;2663;53.588;10.010;2022-08-19T13:30:19;23.70;98.30
5280;DHT22;2663;53.588;10.010;2022-08-19T13:33:05;23.70;98.20
5280;DHT22;2663;53.588;10.010;2022-08-19T13:35:43;23.80;98.00
5280;DHT22;2663;53.588;10.010;2022-08-19T13:38:12;24.10;97.60
5280;DHT22;2663;53.588;10.010;2022-08-19T13:40:40;23.60;97.70
5280;DHT22;2663;53.588;10.010;2022-08-19T13:43:07;23.50;97.60
5280;DHT22;2663;53.588;10.010;2022-08-19T13:45:52;23.90;98.30
5280;DHT22;2663;53.588;10.010;2022-08-19T13:48:20;23.30;98.20
5280;DHT22;2663;53.588;10.010;2022-08-19T13:50:47;23.30;98.30
5280;DHT22;2663;53.588;10.010;2022-08-19T13:53:15;23.40;98.20
5280;DHT22;2663;53.588;10.010;2022-08-19T13:55:43;23.30;98.10
5280;DHT22;2663;53.588;10.010;2022-08-19T13:58:11;23.30;98.40
5280;DHT22;2663;53.588;10.010;2022-08-19T14:00:43;23.30;98.30
5280;DHT22;2663;53.588;10.010;2022-08-19T14:03:10;23.40;98.30
5280;DHT22;2663;53.588;10.010;2022-08-19T14:05:38;23.40;98.30
5280;DHT22;2663;53.588;10.010;2022-08-19T14:08:04;23.50;98.00
5280;DHT22;2663;53.588;10.010;2022-08-19T14:10:31;23.20;98.00
5280;DHT22;2663;53.588;10.010;2022-08-19T14:13:01;23.00;98.40
5280;DHT22;2663;53.588;10.010;2022-08-19T14:15:28;22.90;98.50
5280;DHT22;2663;53.588;10.010;2022-08-19T14:17:55;22.70;98.50
5280;DHT22;2663;53.588;10.010;2022-08-19T14:20:23;22.70;98.50
5280;DHT22;2663;53.588;10.010;2022-08-19T14:22:52;22.70;98.60
5280;DHT22;2663;53.588;10.010;2022-08-19T14:25:22;22.60;98.80
5280;DHT22;2663;53.588;10.010;2022-08-19T14:27:50;22.90;99.30
5280;DHT22;2663;53.588;10.010;2022-08-19T14:30:22;23.30;98.50
5280;DHT22;2663;53.588;10.010;2022-08-19T14:32:48;23.40;98.50
5280;DHT22;2663;53.588;10.010;2022-08-19T14:35:16;23.50;97.50
5280;DHT22;2663;53.588;10.010;2022-08-19T14:37:44;23.40;97.70
5280;DHT22;2663;53.588;10.010;2022-08-19T14:40:24;23.20;97.80
5280;DHT22;2663;53.588;10.010;2022-08-19T14:42:53;23.50;98.00
5280;DHT22;2663;53.588;10.010;2022-08-19T14:45:34;23.60;97.10
5280;DHT22;2663;53.588;10.010;2022-08-19T14:48:02;23.50;97.20
5280;DHT22;2663;53.588;10.010;2022-08-19T14:50:29;23.30;97.30
5280;DHT22;2663;53.588;10.010;2022-08-19T14:53:06;23.20;97.70
5280;DHT22;2663;53.588;10.010;2022-08-19T14:55:42;23.30;97.40
5280;DHT22;2663;53.588;10.010;2022-08-19T14:58:09;23.50;97.50
5280;DHT22;2663;53.588;10.010;2022-08-19T15:00:56;23.60;97.40
5280;DHT22;2663;53.588;10.010;2022-08-19T15:03:23;23.80;97.20
5280;DHT22;2663;53.588;10.010;2022-08-19T15:05:50;24.00;96.80
5280;DHT22;2663;53.588;10.010;2022-08-19T15:08:17;23.90;96.40
5280;DHT22;2663;53.588;10.010;2022-08-19T15:10:44;24.10;96.30
5280;DHT22;2663;53.588;10.010;2022-08-19T15:13:13;24.10;96.40
5280;DHT22;2663;53.588;10.010;2022-08-19T15:15:39;24.10;96.20
5280;DHT22;2663;53.588;10.010;2022-08-19T15:18:06;24.00;96.70
5280;DHT22;2663;53.588;10.010;2022-08-19T15:20:33;23.90;96.40
5280;DHT22;2663;53.588;10.010;2022-08-19T15:22:59;23.80;96.70
5280;DHT22;2663;53.588;10.010;2022-08-19T15:25:27;23.50;96.90
5280;DHT22;2663;53.588;10.010;2022-08-19T15:27:54;23.40;97.10
5280;DHT22;2663;53.588;10.010;2022-08-19T15:30:26;23.50;97.10
5280;DHT22;2663;53.588;10.010;2022-08-19T15:32:55;23.60;96.80
5280;DHT22;2663;53.588;10.010;2022-08-19T15:35:23;23.60;96.90
5280;DHT22;2663;53.588;10.010;2022-08-19T15:37:51;23.70;96.50
5280;DHT22;2663;53.588;10.010;2022-08-19T15:40:19;23.90;96.30
5280;DHT22;2663;53.588;10.010;2022-08-19T15:42:47;23.80;96.40
5280;DHT22;2663;53.588;10.010;2022-08-19T15:45:16;23.80;96.00
5280;DHT22;2663;53.588;10.010;2022-08-19T15:47:43;23.70;96.10
5280;DHT22;2663;53.588;10.010;2022-08-19T15:50:13;23.70;96.30
5280;DHT22;2663;53.588;10.010;2022-08-19T15:52:55;23.80;96.20
5280;DHT22;2663;53.588;10.010;2022-08-19T15:55:27;23.90;95.50
5280;DHT22;2663;53.588;10.010;2022-08-19T15:58:07;23.90;95.40
5280;DHT22;2663;53.588;10.010;2022-08-19T16:01:04;24.20;95.30
5280;DHT22;2663;53.588;10.010;2022-08-19T16:03:53;24.40;94.70
5280;DHT22;2663;53.588;10.010;2022-08-19T16:06:52;24.40;94.70
5280;DHT22;2663;53.588;10.010;2022-08-19T16:09:21;24.40;94.60
5280;DHT22;2663;53.588;10.010;2022-08-19T16:11:54;24.10;94.50